MET'MAP v2.0
soon released !

Expected late october,
this new version will be
more efficient, smarter,
and hosted on a brand new
server x3 powerfull...
...and still free !


Not compatible ?
Try the mobile version !

LOG IN : | Subscribe | Disclaimer | Who is Orbifly ? |
ICAO code :

TAF - EBLG Liège - 14 Nov 2019 09:52 UTC
Data Sources :     NOAA   


- Airport Elevation : 659 ft
- IATA code : LGG
- No reported NOTAMs.


EBLG - Liège

Latest METAR recorded : 2015/08/11 07:50 EBLG 110750Z 31005KT 270V340 5000 BR FEW025 20/16 Q1019 NOSIG
TAF TAF EBLG
Valid from the 14 at 06:00 until the 15 at 12:00 UTC


140510Z 1406/1512 15010KT 9999 SCT020
PROB40
TEMPO 1409/1412 4000 -RADZ BKN010
BECMG 1421/1423 04007KT
PROB30
TEMPO 1504/1509 4000 BR BKN006

Source NOAA


MET'MAP, your aeronautical weather chart ! - Copyright ORBIFLY December 2007

Programming & Development : Alexandra Zaïnal
Co-Developer : Marc-Olivier Méhu
Technical & hardware support : Manuel Goepfert
Concept & Financing : Baudouin d'Aumeries